Time;durP1;ratioP1;P1;durP2;ratioP2;P2;SDS_P1;SDS_P2;PMS_P1;PMS_P2;Temp;Humidity;BMP_temperature;BMP_pressure;BME280_temperature;BME280_humidity;BME280_pressure;Samples;Min_cycle;Max_cycle;Signal;HPM_P1;HPM_P2
2021/01/10 00:00:14;;;;;;;10.73;5.80;;;;;;;-3.33;52.29;102364.69;5016703;28;20065;-67
2021/01/10 00:02:42;;;;;;;11.32;5.88;;;;;;;-3.23;52.51;102363.38;5023139;28;20133;-66
2021/01/10 00:05:10;;;;;;;13.70;6.30;;;;;;;-3.32;52.16;102365.56;5038737;28;20108;-65
2021/01/10 00:07:36;;;;;;;13.30;6.70;;;;;;;-2.94;51.72;102364.53;5023739;28;20034;-66
2021/01/10 00:10:14;;;;;;;9.45;4.45;;;;;;;-3.48;52.63;102359.78;5024043;28;20990;-66
2021/01/10 00:12:39;;;;;;;11.52;5.22;;;;;;;-3.17;52.25;102366.19;5038411;28;20041;-67
2021/01/10 00:15:07;;;;;;;8.82;5.38;;;;;;;-3.12;52.50;102361.25;5011669;28;20102;-67
2021/01/10 00:17:32;;;;;;;9.48;4.57;;;;;;;-2.77;51.95;102351.56;5020598;28;20037;-64
2021/01/10 00:19:58;;;;;;;10.75;5.10;;;;;;;-2.55;51.42;102360.94;5024709;28;20137;-66
2021/01/10 00:22:23;;;;;;;12.80;6.15;;;;;;;-2.56;51.98;102347.25;5024242;28;20033;-65
2021/01/10 00:24:50;;;;;;;8.48;4.63;;;;;;;-2.04;51.02;102345.75;5005810;28;20041;-67
2021/01/10 00:27:17;;;;;;;12.43;5.90;;;;;;;-1.88;50.20;102348.03;5024413;28;20062;-67
2021/01/10 00:29:47;;;;;;;13.68;5.45;;;;;;;-1.80;50.03;102344.06;5023263;28;20037;-67
2021/01/10 00:32:12;;;;;;;9.18;5.65;;;;;;;-1.88;50.02;102345.47;5024694;28;20037;-65
2021/01/10 00:34:38;;;;;;;9.05;4.22;;;;;;;-1.93;50.13;102341.00;5005109;28;20098;-65
2021/01/10 00:37:18;;;;;;;10.43;5.30;;;;;;;-1.86;50.54;102340.41;5023723;28;20072;-66
2021/01/10 00:39:45;;;;;;;9.75;5.45;;;;;;;-1.77;50.31;102347.56;5036891;28;20044;-68
2021/01/10 00:42:14;;;;;;;9.13;5.53;;;;;;;-1.67;50.36;102357.28;5024000;28;20041;-67
2021/01/10 00:44:44;;;;;;;11.93;6.22;;;;;;;-1.72;50.56;102356.28;5014778;28;20040;-64
2021/01/10 00:47:10;;;;;;;8.40;4.88;;;;;;;-2.40;51.78;102358.97;5022309;28;20037;-65
2021/01/10 00:49:36;;;;;;;12.70;5.85;;;;;;;-2.25;52.15;102361.22;5021810;28;20041;-67
2021/01/10 00:52:03;;;;;;;15.13;5.50;;;;;;;-1.87;51.14;102357.47;5006339;28;20049;-67
2021/01/10 00:54:29;;;;;;;9.80;4.78;;;;;;;-1.81;50.86;102352.56;5021013;28;20055;-65
2021/01/10 00:56:56;;;;;;;12.52;5.82;;;;;;;-1.71;51.16;102352.88;5022244;28;20056;-66
2021/01/10 00:59:23;;;;;;;12.73;5.93;;;;;;;-1.54;50.74;102358.59;5024242;28;20545;-67
2021/01/10 01:01:50;;;;;;;15.13;7.53;;;;;;;-1.70;51.22;102359.75;5015388;28;20057;-66
2021/01/10 01:04:17;;;;;;;9.93;6.10;;;;;;;-1.47;50.76;102353.72;5022991;28;20116;-67
2021/01/10 01:06:42;;;;;;;13.07;5.97;;;;;;;-1.52;50.54;102355.25;5020415;28;20474;-68
2021/01/10 01:09:08;;;;;;;12.80;5.97;;;;;;;-1.76;50.82;102347.59;5017919;28;20077;-67
2021/01/10 01:11:36;;;;;;;15.35;6.60;;;;;;;-1.54;50.33;102351.75;5020407;28;20523;-67
2021/01/10 01:14:04;;;;;;;13.80;5.95;;;;;;;-1.67;50.61;102335.09;5022504;28;20414;-68
2021/01/10 01:16:30;;;;;;;12.93;5.82;;;;;;;-1.73;51.28;102339.13;5018887;28;20087;-68
2021/01/10 01:18:55;;;;;;;14.35;6.88;;;;;;;-1.70;51.36;102341.81;5022897;28;20588;-69
2021/01/10 01:21:21;;;;;;;14.35;6.07;;;;;;;-1.55;50.92;102334.66;5022869;28;20040;-67
2021/01/10 01:23:48;;;;;;;12.10;5.68;;;;;;;-1.53;50.99;102338.13;5014245;28;20033;-66
2021/01/10 01:26:18;;;;;;;15.07;6.93;;;;;;;-1.57;50.97;102335.44;5023182;28;20116;-67
2021/01/10 01:28:44;;;;;;;18.80;7.45;;;;;;;-1.64;50.99;102337.78;5025472;28;20037;-67
2021/01/10 01:31:14;;;;;;;15.10;6.90;;;;;;;-1.57;50.92;102323.47;5020831;28;20536;-67
2021/01/10 01:33:41;;;;;;;16.20;7.18;;;;;;;-1.60;51.17;102320.78;5022919;28;20033;-67
2021/01/10 01:36:14;;;;;;;16.15;6.07;;;;;;;-1.68;51.23;102333.34;5027476;28;20038;-68
2021/01/10 01:38:41;;;;;;;14.23;7.13;;;;;;;-1.72;51.73;102331.50;5005735;28;20033;-67
2021/01/10 01:41:07;;;;;;;21.67;6.85;;;;;;;-1.69;51.96;102338.41;5020033;28;20119;-67
2021/01/10 01:43:34;;;;;;;19.67;8.38;;;;;;;-1.57;52.03;102336.28;5022933;28;20037;-67
2021/01/10 01:46:04;;;;;;;22.58;7.55;;;;;;;-1.28;51.57;102334.69;5026069;28;20160;-68
2021/01/10 01:48:30;;;;;;;32.83;7.82;;;;;;;-1.57;52.19;102341.41;5025753;28;20099;-67
2021/01/10 01:50:58;;;;;;;26.63;9.27;;;;;;;-1.73;52.94;102331.44;5021114;28;20029;-68
2021/01/10 01:53:24;;;;;;;21.30;8.23;;;;;;;-1.41;52.75;102333.41;5016070;28;20048;-67
2021/01/10 01:55:52;;;;;;;33.97;8.30;;;;;;;-1.19;52.50;102334.13;5039012;28;20029;-67
2021/01/10 01:58:18;;;;;;;28.73;9.10;;;;;;;-1.04;51.79;102334.63;5027783;28;20402;-67
2021/01/10 02:00:43;;;;;;;29.02;9.25;;;;;;;-0.98;51.76;102339.09;5023906;28;20041;-67
2021/01/10 02:03:09;;;;;;;18.33;7.30;;;;;;;-1.25;52.85;102336.47;5026966;28;20040;-67
2021/01/10 02:05:37;;;;;;;20.95;8.35;;;;;;;-1.05;52.25;102327.75;5022596;28;20056;-67
2021/01/10 02:08:09;;;;;;;22.15;8.65;;;;;;;-0.93;52.23;102331.53;5021169;28;20339;-67
2021/01/10 02:10:39;;;;;;;38.20;8.57;;;;;;;-1.06;52.64;102331.16;5021491;28;20037;-67
2021/01/10 02:13:08;;;;;;;51.45;10.23;;;;;;;-0.84;52.02;102331.81;5025263;28;20072;-68
2021/01/10 02:15:36;;;;;;;49.03;9.68;;;;;;;-1.05;52.83;102326.88;5025722;28;20511;-67
2021/01/10 02:18:05;;;;;;;20.83;9.23;;;;;;;-0.85;52.42;102323.25;5022882;28;20037;-68
2021/01/10 02:20:32;;;;;;;45.95;8.82;;;;;;;-0.94;52.73;102335.78;5024859;28;20067;-67
2021/01/10 02:23:19;;;;;;;34.50;9.38;;;;;;;-1.05;53.40;102332.88;5024232;28;20561;-68
2021/01/10 02:25:47;;;;;;;47.92;11.00;;;;;;;-1.33;54.12;102335.34;5024885;28;20080;-67
2021/01/10 02:28:19;;;;;;;45.05;10.00;;;;;;;-1.11;53.72;102332.66;5024303;28;20037;-68
2021/01/10 02:30:45;;;;;;;50.63;11.23;;;;;;;-1.13;53.83;102329.16;5023540;28;20037;-67
2021/01/10 02:33:37;;;;;;;38.85;9.65;;;;;;;-1.17;54.61;102332.47;5026372;28;20044;-68
2021/01/10 02:36:30;;;;;;;54.87;10.27;;;;;;;-1.03;54.05;102326.09;5012091;28;20045;-67
2021/01/10 02:39:05;;;;;;;30.48;9.35;;;;;;;-0.91;54.20;102325.59;5012216;28;20352;-68
2021/01/10 02:41:45;;;;;;;30.95;10.10;;;;;;;-0.67;53.55;102324.63;4999951;28;20026;-67
2021/01/10 02:44:36;;;;;;;47.88;8.93;;;;;;;-0.81;53.84;102325.06;5027324;28;20661;-68
2021/01/10 02:47:02;;;;;;;25.90;9.55;;;;;;;-0.64;53.39;102319.56;5024965;28;20025;-67
2021/01/10 02:49:28;;;;;;;28.17;10.43;;;;;;;-0.83;53.80;102319.03;5022707;28;20033;-67
2021/01/10 02:51:53;;;;;;;22.80;9.82;;;;;;;-0.64;53.61;102325.59;5022959;28;20040;-68
2021/01/10 02:54:19;;;;;;;29.65;11.35;;;;;;;-0.64;53.71;102317.91;5019770;28;20034;-67
2021/01/10 02:56:57;;;;;;;27.17;10.63;;;;;;;-0.66;53.86;102316.09;5022626;28;20034;-67
2021/01/10 02:59:27;;;;;;;30.48;10.48;;;;;;;-0.32;53.19;102312.81;5009903;28;20055;-69
2021/01/10 03:01:57;;;;;;;34.05;9.88;;;;;;;-0.56;53.23;102312.97;5021845;28;20038;-69
2021/01/10 03:04:23;;;;;;;29.17;12.23;;;;;;;-0.32;53.17;102304.25;5026232;28;20043;-67
2021/01/10 03:06:52;;;;;;;24.67;9.43;;;;;;;-0.15;52.79;102306.44;5017670;28;20029;-67
2021/01/10 03:09:18;;;;;;;32.00;11.30;;;;;;;-0.19;53.06;102299.47;5021501;28;20487;-67
2021/01/10 03:11:44;;;;;;;28.33;10.38;;;;;;;-0.26;53.22;102300.16;5015995;28;20088;-67
2021/01/10 03:14:09;;;;;;;27.95;9.73;;;;;;;-0.42;54.07;102291.09;5015630;28;20045;-65
2021/01/10 03:16:36;;;;;;;24.17;10.27;;;;;;;-0.64;54.31;102291.31;5021927;28;20072;-67
2021/01/10 03:19:02;;;;;;;24.92;10.05;;;;;;;-0.84;54.96;102301.91;5023984;28;20045;-67
2021/01/10 03:21:28;;;;;;;37.03;10.73;;;;;;;-0.74;54.88;102310.72;5023322;28;20536;-67
2021/01/10 03:23:54;;;;;;;24.40;9.30;;;;;;;-0.24;54.02;102306.16;5018788;28;20041;-66
2021/01/10 03:26:20;;;;;;;29.00;11.27;;;;;;;-0.21;53.91;102292.56;5024174;28;20029;-66
2021/01/10 03:28:46;;;;;;;26.83;10.13;;;;;;;-0.07;53.35;102292.94;5019690;28;20041;-66
2021/01/10 03:31:11;;;;;;;35.33;11.88;;;;;;;-0.02;53.08;102287.06;5024524;28;20057;-67
2021/01/10 03:33:37;;;;;;;27.38;10.93;;;;;;;-0.03;53.50;102299.91;5022494;28;20061;-66
2021/01/10 03:36:03;;;;;;;34.08;9.73;;;;;;;0.10;53.19;102298.50;5021756;28;20037;-65
2021/01/10 03:38:29;;;;;;;19.80;8.68;;;;;;;0.19;53.08;102291.03;5021617;28;20793;-66
2021/01/10 03:40:55;;;;;;;30.30;10.73;;;;;;;-0.00;53.52;102284.56;5017855;28;20038;-66
2021/01/10 03:43:20;;;;;;;30.88;11.95;;;;;;;0.02;54.06;102286.31;5024019;28;20106;-65
2021/01/10 03:45:46;;;;;;;40.20;9.82;;;;;;;-0.26;54.56;102279.59;5022982;28;20464;-67
2021/01/10 03:48:11;;;;;;;27.15;9.85;;;;;;;-0.16;54.12;102284.13;5023152;28;20479;-66
2021/01/10 03:50:37;;;;;;;34.80;10.02;;;;;;;-0.44;55.62;102284.19;5014911;28;20573;-68
2021/01/10 03:53:02;;;;;;;23.80;9.43;;;;;;;0.05;54.33;102270.09;5023985;28;20036;-67
2021/01/10 03:55:28;;;;;;;28.45;10.35;;;;;;;0.16;54.10;102273.81;5021194;28;20083;-66
2021/01/10 03:57:53;;;;;;;26.52;9.65;;;;;;;0.15;53.94;102276.38;5022929;28;20503;-66
2021/01/10 04:00:19;;;;;;;25.13;9.02;;;;;;;0.14;54.13;102262.63;5021405;28;20105;-66
2021/01/10 04:02:44;;;;;;;28.10;9.63;;;;;;;-0.03;54.46;102267.34;5021649;28;20057;-65
2021/01/10 04:05:10;;;;;;;22.77;9.55;;;;;;;0.05;54.34;102260.72;5022856;28;20125;-67
2021/01/10 04:07:35;;;;;;;37.35;10.10;;;;;;;-0.21;55.41;102265.16;5021627;28;20080;-67
2021/01/10 04:10:01;;;;;;;22.80;8.25;;;;;;;0.04;54.52;102260.66;5010278;28;20036;-68
2021/01/10 04:12:26;;;;;;;26.80;8.75;;;;;;;0.35;53.87;102264.88;5022683;28;20108;-65
2021/01/10 04:14:55;;;;;;;25.35;8.80;;;;;;;0.33;53.76;102266.56;5022442;28;20086;-66
2021/01/10 04:17:25;;;;;;;18.27;7.88;;;;;;;0.35;54.09;102257.16;5022423;28;20547;-67
2021/01/10 04:19:51;;;;;;;20.13;9.15;;;;;;;0.24;54.38;102259.47;5022839;28;20804;-66
2021/01/10 04:22:16;;;;;;;23.95;9.07;;;;;;;0.05;55.10;102252.09;5022603;28;20494;-66
2021/01/10 04:24:42;;;;;;;47.40;9.48;;;;;;;-0.40;56.26;102262.91;5019891;28;20076;-66
2021/01/10 04:27:07;;;;;;;25.80;9.35;;;;;;;-0.29;56.26;102256.38;5021262;28;20087;-66
2021/01/10 04:29:33;;;;;;;31.83;7.60;;;;;;;-0.16;55.94;102263.56;5029065;28;20057;-66
2021/01/10 04:31:58;;;;;;;36.78;7.47;;;;;;;-0.40;56.78;102257.75;5022641;28;20077;-68
2021/01/10 04:34:23;;;;;;;42.15;7.90;;;;;;;-0.29;56.35;102256.38;5017123;28;20045;-64
2021/01/10 04:36:49;;;;;;;33.28;8.25;;;;;;;-0.58;57.15;102264.13;5021196;28;20120;-68
2021/01/10 04:39:15;;;;;;;56.95;9.05;;;;;;;-0.45;56.55;102254.22;5019390;28;20029;-67
2021/01/10 04:41:41;;;;;;;22.90;7.22;;;;;;;0.15;54.88;102237.81;5021040;28;20026;-67
2021/01/10 04:44:07;;;;;;;29.70;8.05;;;;;;;0.31;54.49;102231.34;5015605;28;20064;-67
2021/01/10 04:46:33;;;;;;;69.35;9.85;;;;;;;0.10;54.95;102240.28;5021533;28;20614;-66
2021/01/10 04:48:59;;;;;;;25.38;8.43;;;;;;;-0.03;55.55;102233.06;5021945;28;20037;-67
2021/01/10 04:51:26;;;;;;;29.58;8.68;;;;;;;-0.04;55.46;102233.88;5022667;28;20094;-67
2021/01/10 04:53:55;;;;;;;42.97;10.15;;;;;;;0.08;55.18;102234.22;5021243;28;20037;-66
2021/01/10 04:56:27;;;;;;;43.10;7.95;;;;;;;-0.21;56.38;102236.03;5020116;28;20104;-66
2021/01/10 04:58:53;;;;;;;26.88;8.27;;;;;;;-0.08;55.94;102234.63;5013805;28;20046;-67
2021/01/10 05:01:22;;;;;;;53.50;9.68;;;;;;;-0.17;56.18;102240.41;5004345;28;20116;-67
2021/01/10 05:03:47;;;;;;;45.97;9.55;;;;;;;-0.53;57.34;102237.69;5020407;28;20058;-65
2021/01/10 05:06:15;;;;;;;24.40;8.93;;;;;;;0.16;55.30;102242.09;5020482;28;20347;-65
2021/01/10 05:08:41;;;;;;;25.75;9.63;;;;;;;0.29;54.85;102233.88;5021118;28;20044;-66
2021/01/10 05:11:07;;;;;;;46.90;9.85;;;;;;;0.36;54.63;102233.19;5019504;28;20057;-66
2021/01/10 05:13:32;;;;;;;22.58;7.93;;;;;;;0.45;54.58;102223.09;5019642;28;20040;-66
2021/01/10 05:16:00;;;;;;;27.73;9.15;;;;;;;0.36;54.44;102222.88;5022034;28;20042;-66
2021/01/10 05:18:25;;;;;;;36.28;9.48;;;;;;;0.28;54.70;102220.16;5021867;28;20051;-67
2021/01/10 05:20:54;;;;;;;52.10;10.35;;;;;;;-0.37;56.11;102219.31;5020300;28;20033;-67
2021/01/10 05:23:25;;;;;;;48.85;8.68;;;;;;;-0.46;56.19;102229.34;5022076;28;20037;-67
2021/01/10 05:26:07;;;;;;;45.85;9.40;;;;;;;-0.05;55.88;102219.31;5020954;28;20338;-66
2021/01/10 05:28:34;;;;;;;54.10;10.15;;;;;;;-0.52;56.90;102214.63;5035656;28;20132;-64
2021/01/10 05:31:10;;;;;;;113.43;10.32;;;;;;;0.03;55.46;102223.81;5021394;28;20029;-66
2021/01/10 05:33:51;;;;;;;55.97;11.95;;;;;;;-0.10;56.16;102213.16;5019992;28;20042;-65
2021/01/10 05:36:28;;;;;;;31.50;9.32;;;;;;;0.36;54.87;102211.75;5021200;28;20040;-67
2021/01/10 05:38:54;;;;;;;56.83;8.82;;;;;;;-0.13;55.87;102217.38;5020716;28;20034;-68
2021/01/10 05:41:23;;;;;;;28.50;7.90;;;;;;;0.25;54.91;102209.75;5018472;28;20137;-65
2021/01/10 05:44:02;;;;;;;51.22;8.95;;;;;;;0.21;54.96;102202.84;5018240;28;20035;-66
2021/01/10 05:46:31;;;;;;;63.17;9.30;;;;;;;0.01;55.94;102192.06;5019978;28;20025;-66
2021/01/10 05:49:00;;;;;;;49.97;9.65;;;;;;;-0.29;56.80;102198.97;5021686;28;20053;-66
2021/01/10 05:51:30;;;;;;;49.05;8.90;;;;;;;0.05;55.77;102195.56;5005239;28;20479;-67
2021/01/10 05:53:57;;;;;;;20.25;8.38;;;;;;;0.19;55.51;102194.22;5020203;28;20044;-68
2021/01/10 05:56:22;;;;;;;30.77;7.35;;;;;;;0.16;55.35;102204.41;5018887;28;20390;-68
2021/01/10 05:58:56;;;;;;;43.20;8.50;;;;;;;0.02;55.50;102205.78;5018954;28;20033;-69
2021/01/10 06:01:23;;;;;;;18.88;7.13;;;;;;;-0.02;55.96;102199.66;5021078;28;20120;-69
2021/01/10 06:03:50;;;;;;;35.40;7.13;;;;;;;-0.68;58.06;102205.66;5019929;28;20061;-69
2021/01/10 06:06:15;;;;;;;55.75;8.38;;;;;;;-0.32;57.11;102199.75;5009339;28;20205;-69
2021/01/10 06:08:41;;;;;;;32.00;7.65;;;;;;;-0.15;56.50;102203.66;5018819;28;20134;-70
2021/01/10 06:11:27;;;;;;;70.95;8.43;;;;;;;-0.71;57.78;102210.66;5016274;28;20086;-69
2021/01/10 06:13:59;;;;;;;16.98;6.70;;;;;;;-0.38;57.43;102204.72;5021696;28;20096;-67
2021/01/10 06:16:35;;;;;;;24.45;6.82;;;;;;;-0.35;57.14;102207.38;5026390;28;20060;-68
2021/01/10 06:19:05;;;;;;;70.07;8.18;;;;;;;-0.30;56.71;102213.53;5025728;28;20029;-68
2021/01/10 06:21:32;;;;;;;28.58;6.65;;;;;;;-0.38;57.13;102209.88;5023653;28;20033;-70
2021/01/10 06:23:59;;;;;;;53.40;8.20;;;;;;;-0.83;58.34;102218.91;5041051;28;20037;-68
2021/01/10 06:26:27;;;;;;;51.00;7.63;;;;;;;-0.64;57.87;102220.31;5019678;28;20117;-69
2021/01/10 06:28:59;;;;;;;45.25;7.40;;;;;;;-0.44;57.47;102220.84;5024810;28;20460;-70
2021/01/10 06:31:29;;;;;;;27.75;6.57;;;;;;;-0.33;56.88;102223.69;5024457;28;20028;-68
2021/01/10 06:34:00;;;;;;;30.55;6.97;;;;;;;-0.72;57.72;102213.22;5024712;28;20068;-69
2021/01/10 06:36:27;;;;;;;17.58;6.63;;;;;;;-0.73;58.20;102212.31;5008059;28;20490;-67
2021/01/10 06:38:59;;;;;;;34.80;6.90;;;;;;;-0.84;58.66;102208.59;5025380;28;20122;-68
2021/01/10 06:41:38;;;;;;;30.50;6.03;;;;;;;-0.74;58.23;102208.03;5023760;28;20037;-69
2021/01/10 06:44:05;;;;;;;35.50;5.68;;;;;;;-1.22;59.46;102209.19;5019523;28;20128;-69
2021/01/10 06:46:32;;;;;;;45.33;6.82;;;;;;;-1.51;60.19;102213.41;5022966;28;20044;-70
2021/01/10 06:49:00;;;;;;;48.78;7.30;;;;;;;-0.88;58.13;102204.22;5023088;28;20048;-68
2021/01/10 06:51:27;;;;;;;32.38;5.88;;;;;;;-1.04;58.69;102210.56;5025990;28;20041;-68
2021/01/10 06:53:53;;;;;;;44.78;6.68;;;;;;;-1.47;60.60;102210.09;5025015;28;20046;-69
2021/01/10 06:56:19;;;;;;;12.27;5.30;;;;;;;-0.53;57.96;102212.03;5020222;28;20514;-71
2021/01/10 06:59:06;;;;;;;24.42;6.43;;;;;;;-0.36;56.99;102206.50;5021282;28;20049;-69
2021/01/10 07:01:50;;;;;;;16.55;6.45;;;;;;;-0.21;56.64;102206.06;5025110;28;20048;-69
2021/01/10 07:04:16;;;;;;;45.40;5.45;;;;;;;-1.12;58.92;102210.31;5018464;28;20137;-68
2021/01/10 07:06:50;;;;;;;32.33;5.10;;;;;;;-1.14;58.92;102211.97;5018533;28;20548;-67
2021/01/10 07:09:17;;;;;;;32.05;5.80;;;;;;;-0.81;58.23;102213.81;5020871;28;20530;-69
2021/01/10 07:11:43;;;;;;;14.77;4.75;;;;;;;-0.52;57.59;102204.38;5020518;28;20029;-67
2021/01/10 07:14:09;;;;;;;19.92;5.22;;;;;;;-0.15;56.61;102208.78;5021550;28;20057;-66
2021/01/10 07:16:35;;;;;;;35.47;4.28;;;;;;;-1.43;59.51;102206.81;5019205;28;20081;-66
2021/01/10 07:19:03;;;;;;;22.98;4.75;;;;;;;-1.53;60.57;102206.47;5025556;28;20052;-68
2021/01/10 07:21:30;;;;;;;27.85;4.35;;;;;;;-0.60;57.86;102213.53;5021616;28;20626;-66
2021/01/10 07:24:15;;;;;;;23.25;5.38;;;;;;;-0.60;57.68;102214.41;5024106;28;20037;-67
2021/01/10 07:26:47;;;;;;;19.17;5.55;;;;;;;-0.89;58.50;102212.72;5009003;28;20113;-66
2021/01/10 07:29:32;;;;;;;18.03;6.07;;;;;;;-1.19;58.90;102214.41;5019570;28;20037;-68
2021/01/10 07:32:19;;;;;;;14.40;4.78;;;;;;;-0.39;57.35;102201.31;5005648;28;20179;-71
2021/01/10 07:34:44;;;;;;;25.40;5.07;;;;;;;-0.77;57.96;102206.25;5020063;28;20180;-67
2021/01/10 07:37:28;;;;;;;26.35;5.72;;;;;;;-1.05;58.93;102214.84;5020947;28;20081;-70
2021/01/10 07:40:04;;;;;;;21.85;6.68;;;;;;;-0.47;57.46;102207.91;5023364;28;20033;-67
2021/01/10 07:42:31;;;;;;;19.17;5.20;;;;;;;-0.78;58.32;102213.91;5020835;28;20032;-70
2021/01/10 07:45:04;;;;;;;15.27;5.72;;;;;;;-0.72;58.08;102213.22;5021676;28;20059;-69
2021/01/10 07:47:29;;;;;;;;;;;;;;;-0.24;56.54;102208.53;5009924;28;20046;-69
2021/01/10 07:49:56;;;;;;;21.90;6.40;;;;;;;-0.35;56.94;102217.66;5020256;28;19923;-70
2021/01/10 07:52:52;;;;;;;31.58;6.68;;;;;;;-0.86;58.56;102216.25;5020381;28;20056;-70
2021/01/10 07:55:18;;;;;;;13.45;5.47;;;;;;;-0.99;58.52;102209.88;5025015;28;20064;-69
2021/01/10 07:57:45;;;;;;;11.80;4.65;;;;;;;-1.24;59.44;102209.94;5022121;28;20038;-70
2021/01/10 08:00:25;;;;;;;14.52;5.10;;;;;;;-0.93;58.78;102208.31;5022684;28;20034;-69
2021/01/10 08:03:03;;;;;;;12.73;4.82;;;;;;;-1.49;60.00;102216.88;5023249;28;20566;-70
2021/01/10 08:05:36;;;;;;;14.60;5.85;;;;;;;-1.36;60.04;102210.44;5018350;28;20109;-69
2021/01/10 08:08:04;;;;;;;13.75;5.20;;;;;;;-1.24;59.33;102212.50;5004767;28;20493;-68
2021/01/10 08:10:53;;;;;;;12.23;5.53;;;;;;;-0.94;58.82;102217.72;5018921;28;20037;-69
2021/01/10 08:13:44;;;;;;;13.80;5.45;;;;;;;-1.26;59.30;102224.44;5021876;28;20036;-72
2021/01/10 08:16:30;;;;;;;12.60;5.25;;;;;;;-0.71;58.30;102223.50;5020786;28;20579;-70
2021/01/10 08:19:00;;;;;;;14.88;4.78;;;;;;;-0.65;57.88;102223.69;5022839;28;20037;-69
2021/01/10 08:21:26;;;;;;;11.93;4.88;;;;;;;-0.09;57.17;102230.34;5017572;28;20033;-70
2021/01/10 08:23:54;;;;;;;15.50;5.40;;;;;;;-0.65;57.84;102226.25;5020599;28;20040;-70
2021/01/10 08:26:21;;;;;;;10.50;4.22;;;;;;;-0.38;56.97;102220.16;5019537;28;20037;-71
2021/01/10 08:28:47;;;;;;;11.85;5.07;;;;;;;-0.40;56.86;102214.09;5015809;28;20038;-69
2021/01/10 08:31:15;;;;;;;10.88;6.22;;;;;;;-0.71;58.00;102210.66;5017631;28;20176;-70
2021/01/10 08:33:42;;;;;;;13.57;4.95;;;;;;;-0.94;58.25;102215.16;5020073;28;20037;-69
2021/01/10 08:36:21;;;;;;;13.52;4.95;;;;;;;-1.06;58.95;102212.19;5020375;28;20090;-70
2021/01/10 08:38:54;;;;;;;12.73;5.65;;;;;;;-1.30;59.06;102202.94;5017270;28;20049;-69
2021/01/10 08:41:36;;;;;;;10.80;5.35;;;;;;;-0.41;56.78;102202.09;5018219;28;20034;-69
2021/01/10 08:44:09;;;;;;;;;;;;;;;-0.77;57.85;102208.81;5022592;28;20033;-67
2021/01/10 08:46:36;;;;;;;;;;;;;;;-0.40;56.82;102201.25;5021502;28;19921;-68
2021/01/10 08:49:02;;;;;;;8.93;5.32;;;;;;;-0.61;57.02;102212.69;5017893;28;19912;-68
2021/01/10 08:51:33;;;;;;;11.48;4.72;;;;;;;-0.61;57.23;102210.13;5006717;28;20037;-68
2021/01/10 08:54:13;;;;;;;15.50;5.53;;;;;;;-0.72;57.58;102208.94;5021604;28;20025;-68
2021/01/10 08:56:39;;;;;;;13.88;5.85;;;;;;;-0.71;57.93;102213.25;5021345;28;20036;-68
2021/01/10 08:59:06;;;;;;;14.73;5.35;;;;;;;-0.94;58.71;102216.84;5018528;28;20443;-68
2021/01/10 09:01:32;;;;;;;16.38;5.40;;;;;;;-0.51;57.48;102207.78;5021324;28;20107;-68
2021/01/10 09:04:09;;;;;;;18.98;5.90;;;;;;;-1.01;58.31;102211.53;5022941;28;20502;-68
2021/01/10 09:06:57;;;;;;;11.68;5.55;;;;;;;-0.77;57.35;102215.66;5020659;28;20034;-68
2021/01/10 09:09:31;;;;;;;12.95;4.95;;;;;;;0.27;55.01;102208.09;5022782;28;20038;-68
2021/01/10 09:12:19;;;;;;;15.98;4.53;;;;;;;0.50;54.48;102215.50;5023017;28;20533;-69
2021/01/10 09:14:49;;;;;;;13.63;5.50;;;;;;;0.96;53.27;102211.38;5019635;28;20464;-68
2021/01/10 09:17:32;;;;;;;12.38;4.60;;;;;;;0.77;53.57;102201.53;5021894;28;20029;-68
2021/01/10 09:20:07;;;;;;;7.97;5.00;;;;;;;-0.40;56.20;102208.97;5005822;28;20040;-68
2021/01/10 09:22:35;;;;;;;9.90;4.95;;;;;;;0.56;54.55;102210.50;5019785;28;20033;-69
2021/01/10 09:25:17;;;;;;;13.00;4.78;;;;;;;0.93;52.90;102211.34;5006227;28;20112;-70
2021/01/10 09:28:01;;;;;;;;;;;;;;;1.30;52.27;102217.22;5002785;28;20037;-68
2021/01/10 09:30:30;;;;;;;9.38;4.25;;;;;;;0.08;54.56;102216.22;5014349;28;19958;-69
2021/01/10 09:32:56;;;;;;;8.02;4.05;;;;;;;0.12;54.82;102207.72;5017592;28;20033;-68
2021/01/10 09:35:21;;;;;;;8.57;4.03;;;;;;;-0.42;56.48;102218.31;5022075;28;20502;-67
2021/01/10 09:37:47;;;;;;;8.93;4.20;;;;;;;-0.71;57.47;102220.94;5019097;28;20052;-68
2021/01/10 09:40:13;;;;;;;6.80;3.80;;;;;;;-0.09;55.54;102214.91;5021429;28;20071;-67
2021/01/10 09:42:46;;;;;;;7.43;3.80;;;;;;;-0.03;55.45;102217.66;5036322;28;20163;-66
2021/01/10 09:45:13;;;;;;;9.18;4.22;;;;;;;0.32;54.24;102215.06;5021375;28;20071;-67
2021/01/10 09:47:40;;;;;;;9.82;3.65;;;;;;;0.19;55.03;102217.34;5021572;28;20025;-67
2021/01/10 09:50:23;;;;;;;8.02;4.18;;;;;;;-0.10;55.74;102211.47;5025747;28;20075;-68
2021/01/10 09:52:53;;;;;;;10.10;3.63;;;;;;;0.27;55.17;102205.53;5005873;28;20131;-67
2021/01/10 09:55:20;;;;;;;10.65;4.30;;;;;;;-0.38;56.40;102215.00;5026153;28;20033;-67
2021/01/10 09:57:46;;;;;;;12.27;4.78;;;;;;;-0.03;55.88;102207.38;5024585;28;20081;-68
2021/01/10 10:00:16;;;;;;;6.72;4.43;;;;;;;0.05;55.61;102200.69;5025636;28;20044;-66
2021/01/10 10:02:43;;;;;;;9.35;4.15;;;;;;;0.35;54.79;102199.72;5024038;28;20041;-67
2021/01/10 10:05:22;;;;;;;9.10;4.13;;;;;;;0.57;54.02;102201.97;5023315;28;20036;-67
2021/01/10 10:07:49;;;;;;;9.45;5.05;;;;;;;0.34;53.78;102205.69;5022775;28;20037;-66
2021/01/10 10:10:21;;;;;;;11.60;5.88;;;;;;;0.51;54.12;102201.81;5020593;28;20025;-67
2021/01/10 10:12:59;;;;;;;8.60;4.05;;;;;;;1.20;53.14;102205.03;5020246;28;20048;-67
2021/01/10 10:15:57;;;;;;;6.45;4.10;;;;;;;0.51;54.38;102200.94;5024291;28;20045;-69
2021/01/10 10:18:26;;;;;;;15.70;3.75;;;;;;;1.57;52.07;102203.19;5026133;28;20033;-68
2021/01/10 10:20:51;;;;;;;9.43;4.10;;;;;;;1.57;51.60;102200.59;5020662;28;20173;-69
2021/01/10 10:23:18;;;;;;;10.95;4.28;;;;;;;0.94;53.63;102200.19;5022238;28;20033;-71
2021/01/10 10:25:47;;;;;;;11.45;3.60;;;;;;;2.11;52.46;102205.03;5020239;28;20062;-71
2021/01/10 10:28:13;;;;;;;6.93;4.35;;;;;;;2.75;49.22;102200.81;5020334;28;20033;-68
2021/01/10 10:30:39;;;;;;;8.52;3.95;;;;;;;3.05;48.19;102202.09;5020072;28;20206;-67
2021/01/10 10:33:05;;;;;;;8.98;3.40;;;;;;;3.12;47.69;102200.44;5019679;28;20771;-68
2021/01/10 10:35:32;;;;;;;5.25;3.40;;;;;;;2.08;50.67;102194.63;5020955;28;20098;-68
2021/01/10 10:37:58;;;;;;;6.80;3.22;;;;;;;0.91;53.11;102197.56;5024145;28;20117;-68
2021/01/10 10:40:24;;;;;;;6.18;3.50;;;;;;;1.94;50.90;102192.69;5022047;28;20466;-71
2021/01/10 10:42:50;;;;;;;7.03;4.05;;;;;;;2.31;50.99;102188.16;5023432;28;20037;-68
2021/01/10 10:45:16;;;;;;;8.35;3.95;;;;;;;2.49;49.82;102187.56;5023135;28;20043;-68
2021/01/10 10:47:42;;;;;;;6.20;3.40;;;;;;;1.77;51.49;102190.66;5019562;28;20041;-68
2021/01/10 10:50:08;;;;;;;13.50;3.53;;;;;;;1.42;52.79;102184.03;5019046;28;20119;-70
2021/01/10 10:52:34;;;;;;;10.68;3.17;;;;;;;2.00;51.45;102185.91;5016946;28;20056;-68
2021/01/10 10:55:00;;;;;;;10.57;3.47;;;;;;;2.13;50.96;102182.69;5022707;28;20052;-70
2021/01/10 10:57:25;;;;;;;6.28;3.15;;;;;;;1.80;51.73;102183.88;5019030;28;20071;-70
2021/01/10 10:59:51;;;;;;;5.90;3.40;;;;;;;1.96;51.93;102178.97;5015558;28;20041;-68
2021/01/10 11:02:17;;;;;;;4.40;2.70;;;;;;;1.93;51.28;102172.91;5018393;28;20045;-67
2021/01/10 11:04:45;;;;;;;8.77;3.20;;;;;;;1.86;51.77;102183.09;5014916;28;20033;-67
2021/01/10 11:07:11;;;;;;;7.93;3.63;;;;;;;1.23;52.61;102184.47;5020878;28;20029;-68
2021/01/10 11:09:37;;;;;;;5.28;2.67;;;;;;;1.42;52.27;102178.88;5016024;28;20045;-69
2021/01/10 11:12:03;;;;;;;6.57;2.42;;;;;;;1.52;52.16;102178.19;5021311;28;20038;-68
2021/01/10 11:14:28;;;;;;;4.32;3.03;;;;;;;2.05;51.51;102179.13;5020994;28;20600;-68
2021/01/10 11:16:54;;;;;;;7.70;2.83;;;;;;;1.67;51.52;102164.72;5022141;28;20041;-70
2021/01/10 11:19:22;;;;;;;6.10;3.20;;;;;;;1.25;52.71;102170.78;5023288;28;20205;-70
2021/01/10 11:21:51;;;;;;;10.25;2.97;;;;;;;1.36;53.18;102171.00;5022666;28;20111;-67
2021/01/10 11:24:17;;;;;;;8.60;3.05;;;;;;;1.20;53.31;102167.25;5006344;28;20044;-70
2021/01/10 11:26:44;;;;;;;7.30;3.72;;;;;;;1.73;52.18;102166.56;5018584;28;20030;-68
2021/01/10 11:29:11;;;;;;;7.70;2.90;;;;;;;1.59;52.26;102168.88;5020471;28;20037;-69
2021/01/10 11:31:37;;;;;;;7.40;3.78;;;;;;;1.28;53.47;102169.97;5020148;28;20037;-68